Sunday, December 17, 2017, 10:00 PM EST
Back to Local

KMGW, Morgantown Muni-hart Field

Location: Morgantown, WV, United States Lat: 39.65
Local Time: 10:00 PM EST ( 3:00 GMT) Lon: -79.917
Time Zone: US/Eastern Elev: 1246 ft

Show me the last for .
Show Coded

Time T Td Feel RH Dir Speed Gust Alt SLP Vis Weather Sky Remarks
2017-12-17 20:53 39 30 - 69 - Calm - 30.13 30.15 10 OVC060 None
2017-12-17 19:53 40 30 - 67 - Calm - 30.14 30.16 10 OVC050 None
2017-12-17 18:53 40 30 - 67 - Calm - 30.13 30.16 10 FEW060 OVC075 1-hr Precip Total: Trace
6-hr Precip Total (7pm): 0.00"
6-hr Min Temp (7pm): 39.9°F
6-hr Max Temp (7pm): 44.1°F
2017-12-17 17:53 40 30 - 67 - Calm - 30.14 30.16 10 -RA SCT060 SCT070 OVC090 1-hr Precip Total: Trace
2017-12-17 16:53 42 29 - 59 - Calm - 30.15 30.17 10 OVC095 None
2017-12-17 15:53 44 28 - 53 - Calm - 30.14 30.16 10 OVC090 6-hr Precip Total (4pm): 0.00"
2017-12-17 14:53 43 28 41 55 180° 3 - 30.11 30.13 10 BKN090 OVC110 1-hr Precip Total: Trace
2017-12-17 13:53 44 27 43 50 190° 3 - 30.13 30.15 10 OVC090 None
2017-12-17 12:53 44 27 43 50 200° 3 - 30.16 30.18 10 FEW120 6-hr Min Temp (1pm): 35.1°F
6-hr Max Temp (1pm): 44.1°F
2017-12-17 11:53 43 27 39 52 170° 7 - 30.19 30.21 10 CLR None
2017-12-17 10:53 41 27 38 57 180° 5 - 30.24 30.27 10 CLR None
2017-12-17 09:53 40 26 36 57 200° 6 - 30.26 30.28 10 CLR None
2017-12-17 08:53 38 25 36 59 180° 3 - 30.20 30.23 10 CLR None
2017-12-17 07:53 36 25 32 63 200° 5 - 30.23 30.25 10 CLR None
2017-12-17 06:53 37 25 33 61 200° 5 - 30.22 30.25 10 CLR 6-hr Min Temp (7am): 35.1°F
6-hr Max Temp (7am): 39.0°F
2017-12-17 05:53 36 25 33 63 200° 3 - 30.20 30.23 10 CLR None
2017-12-17 04:53 35 24 32 63 210° 3 - 30.20 30.22 10 CLR None
2017-12-17 03:53 37 25 33 61 210° 5 - 30.21 30.23 10 CLR None
2017-12-17 02:53 38 25 33 59 210° 7 - 30.22 30.24 10 CLR None
2017-12-17 01:53 38 24 33 56 210° 6 - 30.21 30.23 10 CLR None
2017-12-17 00:53 37 24 32 59 200° 6 - 30.19 30.21 10 CLR 6-hr Min Temp (1am): 34.0°F
6-hr Max Temp (1am): 39.0°F
2017-12-16 23:53 37 24 34 59 200° 3 - 30.18 30.21 10 CLR 24-hr Min Temp (12am): 28.0°F
24-hr Max Temp (12am): 45.0°F
2017-12-16 22:53 35 24 32 63 190° 3 - 30.17 30.20 10 CLR None

Support USWX by starting your Amazon purchase here.